sensor_id;sensor_type;location;lat;lon;timestamp;P1;durP1;ratioP1;P2;durP2;ratioP2
53879;SDS011;39791;53.184;5.486;2024-01-30T00:00:11;75.88;;;67.60;;
53879;SDS011;39791;53.184;5.486;2024-01-30T00:02:36;83.28;;;74.88;;
53879;SDS011;39791;53.184;5.486;2024-01-30T00:05:02;72.13;;;64.15;;
53879;SDS011;39791;53.184;5.486;2024-01-30T00:07:28;88.72;;;79.85;;
53879;SDS011;39791;53.184;5.486;2024-01-30T00:09:54;77.50;;;68.32;;
53879;SDS011;39791;53.184;5.486;2024-01-30T00:12:20;76.88;;;65.80;;
53879;SDS011;39791;53.184;5.486;2024-01-30T00:14:46;88.75;;;79.43;;
53879;SDS011;39791;53.184;5.486;2024-01-30T00:17:11;72.18;;;62.03;;
53879;SDS011;39791;53.184;5.486;2024-01-30T00:19:37;79.07;;;65.63;;
53879;SDS011;39791;53.184;5.486;2024-01-30T00:22:02;92.85;;;83.47;;
53879;SDS011;39791;53.184;5.486;2024-01-30T00:24:28;93.60;;;83.90;;
53879;SDS011;39791;53.184;5.486;2024-01-30T00:26:54;95.53;;;85.57;;
53879;SDS011;39791;53.184;5.486;2024-01-30T00:29:19;78.95;;;66.45;;
53879;SDS011;39791;53.184;5.486;2024-01-30T00:31:45;88.97;;;79.63;;
53879;SDS011;39791;53.184;5.486;2024-01-30T00:34:11;70.07;;;60.10;;
53879;SDS011;39791;53.184;5.486;2024-01-30T00:36:37;74.70;;;65.07;;
53879;SDS011;39791;53.184;5.486;2024-01-30T00:39:02;90.78;;;81.78;;
53879;SDS011;39791;53.184;5.486;2024-01-30T00:41:31;73.20;;;62.60;;
53879;SDS011;39791;53.184;5.486;2024-01-30T00:43:57;91.00;;;81.75;;
53879;SDS011;39791;53.184;5.486;2024-01-30T00:46:22;91.45;;;81.95;;
53879;SDS011;39791;53.184;5.486;2024-01-30T00:48:48;91.03;;;81.47;;
53879;SDS011;39791;53.184;5.486;2024-01-30T00:51:14;91.88;;;82.25;;
53879;SDS011;39791;53.184;5.486;2024-01-30T00:53:39;80.53;;;67.57;;
53879;SDS011;39791;53.184;5.486;2024-01-30T00:56:06;70.10;;;60.65;;
53879;SDS011;39791;53.184;5.486;2024-01-30T00:58:32;91.53;;;81.63;;
53879;SDS011;39791;53.184;5.486;2024-01-30T01:00:58;77.15;;;67.55;;
53879;SDS011;39791;53.184;5.486;2024-01-30T01:03:24;89.68;;;80.93;;
53879;SDS011;39791;53.184;5.486;2024-01-30T01:05:49;88.60;;;79.47;;
53879;SDS011;39791;53.184;5.486;2024-01-30T01:08:15;69.28;;;61.78;;
53879;SDS011;39791;53.184;5.486;2024-01-30T01:10:40;89.55;;;80.20;;
53879;SDS011;39791;53.184;5.486;2024-01-30T01:13:06;87.78;;;78.65;;
53879;SDS011;39791;53.184;5.486;2024-01-30T01:15:32;71.90;;;62.17;;
53879;SDS011;39791;53.184;5.486;2024-01-30T01:17:57;89.47;;;80.22;;
53879;SDS011;39791;53.184;5.486;2024-01-30T01:20:23;85.32;;;76.53;;
53879;SDS011;39791;53.184;5.486;2024-01-30T01:22:48;86.97;;;77.97;;
53879;SDS011;39791;53.184;5.486;2024-01-30T01:25:14;72.47;;;63.97;;
53879;SDS011;39791;53.184;5.486;2024-01-30T01:27:40;90.25;;;81.10;;
53879;SDS011;39791;53.184;5.486;2024-01-30T01:30:10;90.68;;;81.28;;
53879;SDS011;39791;53.184;5.486;2024-01-30T01:32:36;74.80;;;63.03;;
53879;SDS011;39791;53.184;5.486;2024-01-30T01:35:03;89.03;;;80.13;;
53879;SDS011;39791;53.184;5.486;2024-01-30T01:37:30;87.07;;;78.20;;
53879;SDS011;39791;53.184;5.486;2024-01-30T01:39:56;71.28;;;61.88;;
53879;SDS011;39791;53.184;5.486;2024-01-30T01:42:21;94.28;;;84.72;;
53879;SDS011;39791;53.184;5.486;2024-01-30T01:44:47;88.45;;;79.50;;
53879;SDS011;39791;53.184;5.486;2024-01-30T01:47:13;77.97;;;68.47;;
53879;SDS011;39791;53.184;5.486;2024-01-30T01:49:40;92.90;;;83.80;;
53879;SDS011;39791;53.184;5.486;2024-01-30T01:52:06;88.40;;;79.07;;
53879;SDS011;39791;53.184;5.486;2024-01-30T01:54:32;91.75;;;82.80;;
53879;SDS011;39791;53.184;5.486;2024-01-30T01:56:58;91.38;;;82.32;;
53879;SDS011;39791;53.184;5.486;2024-01-30T01:59:24;66.15;;;57.17;;
53879;SDS011;39791;53.184;5.486;2024-01-30T02:01:50;75.93;;;66.00;;
53879;SDS011;39791;53.184;5.486;2024-01-30T02:04:18;88.18;;;79.15;;
53879;SDS011;39791;53.184;5.486;2024-01-30T02:06:43;86.32;;;77.32;;
53879;SDS011;39791;53.184;5.486;2024-01-30T02:09:09;86.13;;;77.00;;
53879;SDS011;39791;53.184;5.486;2024-01-30T02:11:35;71.40;;;62.30;;
53879;SDS011;39791;53.184;5.486;2024-01-30T02:14:04;82.43;;;73.95;;
53879;SDS011;39791;53.184;5.486;2024-01-30T02:16:30;70.68;;;58.67;;
53879;SDS011;39791;53.184;5.486;2024-01-30T02:18:56;82.85;;;74.07;;
53879;SDS011;39791;53.184;5.486;2024-01-30T02:21:22;83.93;;;75.30;;
53879;SDS011;39791;53.184;5.486;2024-01-30T02:23:47;70.10;;;60.25;;
53879;SDS011;39791;53.184;5.486;2024-01-30T02:26:14;83.40;;;74.60;;
53879;SDS011;39791;53.184;5.486;2024-01-30T02:28:39;67.32;;;58.28;;
53879;SDS011;39791;53.184;5.486;2024-01-30T02:31:05;72.05;;;63.08;;
53879;SDS011;39791;53.184;5.486;2024-01-30T02:33:31;78.07;;;64.10;;
53879;SDS011;39791;53.184;5.486;2024-01-30T02:35:57;82.00;;;73.47;;
53879;SDS011;39791;53.184;5.486;2024-01-30T02:38:22;83.53;;;74.82;;
53879;SDS011;39791;53.184;5.486;2024-01-30T02:40:48;84.72;;;76.25;;
53879;SDS011;39791;53.184;5.486;2024-01-30T02:43:15;84.35;;;76.25;;
53879;SDS011;39791;53.184;5.486;2024-01-30T02:45:41;85.18;;;76.70;;
53879;SDS011;39791;53.184;5.486;2024-01-30T02:48:07;86.72;;;77.97;;
53879;SDS011;39791;53.184;5.486;2024-01-30T02:50:33;85.80;;;77.50;;
53879;SDS011;39791;53.184;5.486;2024-01-30T02:52:59;70.35;;;62.97;;
53879;SDS011;39791;53.184;5.486;2024-01-30T02:55:24;81.40;;;73.28;;
53879;SDS011;39791;53.184;5.486;2024-01-30T02:57:50;78.65;;;70.65;;
53879;SDS011;39791;53.184;5.486;2024-01-30T03:00:15;80.47;;;72.30;;
53879;SDS011;39791;53.184;5.486;2024-01-30T03:02:41;88.22;;;79.35;;
53879;SDS011;39791;53.184;5.486;2024-01-30T03:05:07;85.13;;;76.72;;
53879;SDS011;39791;53.184;5.486;2024-01-30T03:07:33;82.72;;;74.72;;
53879;SDS011;39791;53.184;5.486;2024-01-30T03:09:59;83.03;;;74.70;;
53879;SDS011;39791;53.184;5.486;2024-01-30T03:12:25;71.07;;;59.10;;
53879;SDS011;39791;53.184;5.486;2024-01-30T03:14:51;79.43;;;71.03;;
53879;SDS011;39791;53.184;5.486;2024-01-30T03:17:16;79.65;;;71.43;;
53879;SDS011;39791;53.184;5.486;2024-01-30T03:19:42;76.85;;;68.97;;
53879;SDS011;39791;53.184;5.486;2024-01-30T03:22:07;78.28;;;70.43;;
53879;SDS011;39791;53.184;5.486;2024-01-30T03:24:33;76.40;;;69.00;;
53879;SDS011;39791;53.184;5.486;2024-01-30T03:26:59;71.45;;;62.17;;
53879;SDS011;39791;53.184;5.486;2024-01-30T03:29:24;83.85;;;75.70;;
53879;SDS011;39791;53.184;5.486;2024-01-30T03:31:50;86.75;;;78.15;;
53879;SDS011;39791;53.184;5.486;2024-01-30T03:34:15;88.50;;;79.78;;
53879;SDS011;39791;53.184;5.486;2024-01-30T03:36:41;84.40;;;76.13;;
53879;SDS011;39791;53.184;5.486;2024-01-30T03:39:07;70.47;;;62.92;;
53879;SDS011;39791;53.184;5.486;2024-01-30T03:41:32;85.28;;;76.75;;
53879;SDS011;39791;53.184;5.486;2024-01-30T03:43:58;84.10;;;75.57;;
53879;SDS011;39791;53.184;5.486;2024-01-30T03:46:24;68.57;;;61.42;;
53879;SDS011;39791;53.184;5.486;2024-01-30T03:48:49;82.78;;;74.07;;
53879;SDS011;39791;53.184;5.486;2024-01-30T03:51:15;70.45;;;60.28;;
53879;SDS011;39791;53.184;5.486;2024-01-30T03:53:41;78.72;;;70.68;;
53879;SDS011;39791;53.184;5.486;2024-01-30T03:56:07;62.65;;;56.10;;
53879;SDS011;39791;53.184;5.486;2024-01-30T03:58:33;77.80;;;69.82;;
53879;SDS011;39791;53.184;5.486;2024-01-30T04:00:59;81.45;;;72.97;;
53879;SDS011;39791;53.184;5.486;2024-01-30T04:03:24;81.15;;;72.68;;
53879;SDS011;39791;53.184;5.486;2024-01-30T04:05:53;81.47;;;73.15;;
53879;SDS011;39791;53.184;5.486;2024-01-30T04:08:19;72.38;;;64.53;;
53879;SDS011;39791;53.184;5.486;2024-01-30T04:10:46;69.20;;;62.03;;
53879;SDS011;39791;53.184;5.486;2024-01-30T04:13:12;72.18;;;64.70;;
53879;SDS011;39791;53.184;5.486;2024-01-30T04:15:37;75.93;;;68.53;;
53879;SDS011;39791;53.184;5.486;2024-01-30T04:18:03;72.25;;;65.03;;
53879;SDS011;39791;53.184;5.486;2024-01-30T04:20:29;76.10;;;68.75;;
53879;SDS011;39791;53.184;5.486;2024-01-30T04:22:55;75.07;;;67.63;;
53879;SDS011;39791;53.184;5.486;2024-01-30T04:25:21;79.63;;;72.05;;
53879;SDS011;39791;53.184;5.486;2024-01-30T04:27:46;74.22;;;66.78;;
53879;SDS011;39791;53.184;5.486;2024-01-30T04:30:12;75.03;;;67.40;;
53879;SDS011;39791;53.184;5.486;2024-01-30T04:32:38;73.38;;;65.60;;
53879;SDS011;39791;53.184;5.486;2024-01-30T04:35:04;73.90;;;66.50;;
53879;SDS011;39791;53.184;5.486;2024-01-30T04:37:29;74.53;;;66.63;;
53879;SDS011;39791;53.184;5.486;2024-01-30T04:39:55;69.88;;;62.08;;
53879;SDS011;39791;53.184;5.486;2024-01-30T04:42:21;72.78;;;65.28;;
53879;SDS011;39791;53.184;5.486;2024-01-30T04:44:47;72.55;;;64.95;;
53879;SDS011;39791;53.184;5.486;2024-01-30T04:47:12;73.95;;;66.07;;
53879;SDS011;39791;53.184;5.486;2024-01-30T04:49:38;56.78;;;50.58;;
53879;SDS011;39791;53.184;5.486;2024-01-30T04:52:05;58.10;;;51.33;;
53879;SDS011;39791;53.184;5.486;2024-01-30T04:54:31;72.13;;;64.47;;
53879;SDS011;39791;53.184;5.486;2024-01-30T04:56:57;72.28;;;64.68;;
53879;SDS011;39791;53.184;5.486;2024-01-30T04:59:22;72.75;;;65.40;;
53879;SDS011;39791;53.184;5.486;2024-01-30T05:01:48;68.97;;;61.63;;
53879;SDS011;39791;53.184;5.486;2024-01-30T05:04:13;72.03;;;64.72;;
53879;SDS011;39791;53.184;5.486;2024-01-30T05:06:39;72.63;;;65.28;;
53879;SDS011;39791;53.184;5.486;2024-01-30T05:09:04;75.28;;;67.95;;
53879;SDS011;39791;53.184;5.486;2024-01-30T05:11:30;76.72;;;69.15;;
53879;SDS011;39791;53.184;5.486;2024-01-30T05:13:56;77.88;;;70.35;;
53879;SDS011;39791;53.184;5.486;2024-01-30T05:16:22;75.35;;;67.95;;
53879;SDS011;39791;53.184;5.486;2024-01-30T05:18:47;66.18;;;58.08;;
53879;SDS011;39791;53.184;5.486;2024-01-30T05:21:13;63.42;;;56.53;;
53879;SDS011;39791;53.184;5.486;2024-01-30T05:23:38;75.90;;;68.38;;
53879;SDS011;39791;53.184;5.486;2024-01-30T05:26:05;72.75;;;65.20;;
53879;SDS011;39791;53.184;5.486;2024-01-30T05:28:30;72.18;;;64.57;;
53879;SDS011;39791;53.184;5.486;2024-01-30T05:30:56;72.30;;;64.65;;
53879;SDS011;39791;53.184;5.486;2024-01-30T05:33:22;72.13;;;64.65;;
53879;SDS011;39791;53.184;5.486;2024-01-30T05:35:47;69.93;;;62.67;;
53879;SDS011;39791;53.184;5.486;2024-01-30T05:38:13;71.78;;;64.10;;
53879;SDS011;39791;53.184;5.486;2024-01-30T05:40:40;70.57;;;62.55;;
53879;SDS011;39791;53.184;5.486;2024-01-30T05:43:06;71.15;;;61.80;;
53879;SDS011;39791;53.184;5.486;2024-01-30T05:45:32;73.07;;;65.70;;
53879;SDS011;39791;53.184;5.486;2024-01-30T05:48:00;70.38;;;62.95;;
53879;SDS011;39791;53.184;5.486;2024-01-30T05:50:26;71.05;;;63.72;;
53879;SDS011;39791;53.184;5.486;2024-01-30T05:52:52;68.60;;;61.35;;
53879;SDS011;39791;53.184;5.486;2024-01-30T05:55:18;69.75;;;62.65;;
53879;SDS011;39791;53.184;5.486;2024-01-30T05:57:43;62.17;;;55.47;;
53879;SDS011;39791;53.184;5.486;2024-01-30T06:00:09;71.25;;;63.67;;
53879;SDS011;39791;53.184;5.486;2024-01-30T06:02:35;72.03;;;64.43;;
53879;SDS011;39791;53.184;5.486;2024-01-30T06:05:01;70.75;;;63.17;;
53879;SDS011;39791;53.184;5.486;2024-01-30T06:07:26;69.88;;;62.50;;
53879;SDS011;39791;53.184;5.486;2024-01-30T06:09:52;62.97;;;51.90;;
53879;SDS011;39791;53.184;5.486;2024-01-30T06:12:18;71.63;;;64.05;;
53879;SDS011;39791;53.184;5.486;2024-01-30T06:14:43;71.22;;;63.40;;
53879;SDS011;39791;53.184;5.486;2024-01-30T06:17:09;69.15;;;61.65;;
53879;SDS011;39791;53.184;5.486;2024-01-30T06:19:36;70.18;;;62.65;;
53879;SDS011;39791;53.184;5.486;2024-01-30T06:22:03;69.32;;;61.83;;
53879;SDS011;39791;53.184;5.486;2024-01-30T06:24:29;66.45;;;59.22;;
53879;SDS011;39791;53.184;5.486;2024-01-30T06:26:55;69.45;;;62.25;;
53879;SDS011;39791;53.184;5.486;2024-01-30T06:29:20;65.28;;;58.45;;
53879;SDS011;39791;53.184;5.486;2024-01-30T06:31:46;62.63;;;54.85;;
53879;SDS011;39791;53.184;5.486;2024-01-30T06:34:11;68.65;;;61.45;;
53879;SDS011;39791;53.184;5.486;2024-01-30T06:36:37;56.85;;;49.38;;
53879;SDS011;39791;53.184;5.486;2024-01-30T06:39:03;68.05;;;60.88;;
53879;SDS011;39791;53.184;5.486;2024-01-30T06:41:29;63.75;;;56.95;;
53879;SDS011;39791;53.184;5.486;2024-01-30T06:43:55;69.80;;;60.72;;
53879;SDS011;39791;53.184;5.486;2024-01-30T06:46:21;64.68;;;57.25;;
53879;SDS011;39791;53.184;5.486;2024-01-30T06:48:47;68.65;;;61.42;;
53879;SDS011;39791;53.184;5.486;2024-01-30T06:51:12;68.20;;;60.88;;
53879;SDS011;39791;53.184;5.486;2024-01-30T06:53:38;72.38;;;64.55;;
53879;SDS011;39791;53.184;5.486;2024-01-30T06:56:03;73.43;;;63.00;;
53879;SDS011;39791;53.184;5.486;2024-01-30T06:58:30;69.45;;;61.83;;
53879;SDS011;39791;53.184;5.486;2024-01-30T07:00:56;68.78;;;61.47;;
53879;SDS011;39791;53.184;5.486;2024-01-30T07:03:21;69.85;;;61.83;;
53879;SDS011;39791;53.184;5.486;2024-01-30T07:05:47;67.95;;;59.60;;
53879;SDS011;39791;53.184;5.486;2024-01-30T07:08:13;67.82;;;61.05;;
53879;SDS011;39791;53.184;5.486;2024-01-30T07:10:42;70.75;;;63.63;;
53879;SDS011;39791;53.184;5.486;2024-01-30T07:13:08;69.78;;;62.40;;
53879;SDS011;39791;53.184;5.486;2024-01-30T07:15:35;73.57;;;66.50;;
53879;SDS011;39791;53.184;5.486;2024-01-30T07:18:01;73.63;;;65.70;;
53879;SDS011;39791;53.184;5.486;2024-01-30T07:20:27;69.15;;;61.83;;
53879;SDS011;39791;53.184;5.486;2024-01-30T07:22:55;68.55;;;61.10;;
53879;SDS011;39791;53.184;5.486;2024-01-30T07:25:21;65.78;;;58.95;;
53879;SDS011;39791;53.184;5.486;2024-01-30T07:27:51;70.80;;;63.40;;
53879;SDS011;39791;53.184;5.486;2024-01-30T07:30:20;70.50;;;63.13;;
53879;SDS011;39791;53.184;5.486;2024-01-30T07:32:46;65.18;;;58.30;;
53879;SDS011;39791;53.184;5.486;2024-01-30T07:35:12;63.92;;;57.08;;
53879;SDS011;39791;53.184;5.486;2024-01-30T07:37:38;46.50;;;41.58;;
53879;SDS011;39791;53.184;5.486;2024-01-30T07:40:04;52.70;;;47.22;;
53879;SDS011;39791;53.184;5.486;2024-01-30T07:42:31;49.95;;;45.00;;
53879;SDS011;39791;53.184;5.486;2024-01-30T07:44:57;62.33;;;55.42;;
53879;SDS011;39791;53.184;5.486;2024-01-30T07:47:23;62.70;;;56.17;;
53879;SDS011;39791;53.184;5.486;2024-01-30T07:49:48;65.55;;;58.78;;
53879;SDS011;39791;53.184;5.486;2024-01-30T07:52:14;66.10;;;59.30;;
53879;SDS011;39791;53.184;5.486;2024-01-30T07:54:49;62.60;;;55.88;;
53879;SDS011;39791;53.184;5.486;2024-01-30T07:57:17;47.58;;;41.40;;
53879;SDS011;39791;53.184;5.486;2024-01-30T07:59:43;63.15;;;56.72;;
53879;SDS011;39791;53.184;5.486;2024-01-30T08:02:10;60.42;;;54.03;;
53879;SDS011;39791;53.184;5.486;2024-01-30T08:04:37;65.72;;;58.72;;
53879;SDS011;39791;53.184;5.486;2024-01-30T08:07:02;66.90;;;60.00;;
53879;SDS011;39791;53.184;5.486;2024-01-30T08:09:28;66.40;;;59.38;;
53879;SDS011;39791;53.184;5.486;2024-01-30T08:11:53;66.40;;;57.25;;
53879;SDS011;39791;53.184;5.486;2024-01-30T08:14:19;67.60;;;60.25;;
53879;SDS011;39791;53.184;5.486;2024-01-30T08:16:45;66.57;;;56.55;;
53879;SDS011;39791;53.184;5.486;2024-01-30T08:19:10;64.97;;;56.65;;
53879;SDS011;39791;53.184;5.486;2024-01-30T08:21:36;74.47;;;65.03;;
53879;SDS011;39791;53.184;5.486;2024-01-30T08:24:03;67.20;;;59.83;;
53879;SDS011;39791;53.184;5.486;2024-01-30T08:26:29;69.28;;;61.92;;
53879;SDS011;39791;53.184;5.486;2024-01-30T08:28:55;64.50;;;57.47;;
53879;SDS011;39791;53.184;5.486;2024-01-30T08:31:21;54.30;;;46.72;;
53879;SDS011;39791;53.184;5.486;2024-01-30T08:33:47;66.82;;;59.53;;
53879;SDS011;39791;53.184;5.486;2024-01-30T08:36:12;62.97;;;55.35;;
53879;SDS011;39791;53.184;5.486;2024-01-30T08:38:38;61.35;;;54.78;;
53879;SDS011;39791;53.184;5.486;2024-01-30T08:41:03;68.65;;;61.13;;
53879;SDS011;39791;53.184;5.486;2024-01-30T08:43:30;74.22;;;62.97;;
53879;SDS011;39791;53.184;5.486;2024-01-30T08:45:58;67.10;;;59.67;;
53879;SDS011;39791;53.184;5.486;2024-01-30T08:48:27;67.45;;;60.00;;
53879;SDS011;39791;53.184;5.486;2024-01-30T08:50:52;68.57;;;61.50;;
53879;SDS011;39791;53.184;5.486;2024-01-30T08:53:18;70.47;;;63.08;;
53879;SDS011;39791;53.184;5.486;2024-01-30T08:55:44;66.70;;;59.58;;
53879;SDS011;39791;53.184;5.486;2024-01-30T08:58:10;65.82;;;56.80;;
53879;SDS011;39791;53.184;5.486;2024-01-30T09:00:36;67.68;;;60.22;;
53879;SDS011;39791;53.184;5.486;2024-01-30T09:03:02;72.53;;;61.80;;
53879;SDS011;39791;53.184;5.486;2024-01-30T09:05:28;63.03;;;56.22;;
53879;SDS011;39791;53.184;5.486;2024-01-30T09:07:54;65.50;;;56.88;;
53879;SDS011;39791;53.184;5.486;2024-01-30T09:10:19;66.85;;;59.70;;
53879;SDS011;39791;53.184;5.486;2024-01-30T09:12:45;67.70;;;60.35;;
53879;SDS011;39791;53.184;5.486;2024-01-30T09:15:11;68.13;;;59.55;;
53879;SDS011;39791;53.184;5.486;2024-01-30T09:17:37;70.55;;;62.08;;
53879;SDS011;39791;53.184;5.486;2024-01-30T09:20:02;70.10;;;62.55;;
53879;SDS011;39791;53.184;5.486;2024-01-30T09:22:29;68.97;;;61.55;;
53879;SDS011;39791;53.184;5.486;2024-01-30T09:24:54;72.25;;;60.92;;
53879;SDS011;39791;53.184;5.486;2024-01-30T09:27:20;64.95;;;57.78;;
53879;SDS011;39791;53.184;5.486;2024-01-30T09:29:45;67.35;;;60.17;;
53879;SDS011;39791;53.184;5.486;2024-01-30T09:32:11;65.03;;;57.40;;
53879;SDS011;39791;53.184;5.486;2024-01-30T09:34:36;68.43;;;55.90;;
53879;SDS011;39791;53.184;5.486;2024-01-30T09:37:02;66.95;;;57.28;;
53879;SDS011;39791;53.184;5.486;2024-01-30T09:39:28;76.60;;;60.65;;
53879;SDS011;39791;53.184;5.486;2024-01-30T09:42:11;68.07;;;60.63;;
53879;SDS011;39791;53.184;5.486;2024-01-30T09:44:53;73.53;;;59.67;;
53879;SDS011;39791;53.184;5.486;2024-01-30T09:47:20;72.03;;;58.85;;
53879;SDS011;39791;53.184;5.486;2024-01-30T09:49:46;71.55;;;56.05;;
53879;SDS011;39791;53.184;5.486;2024-01-30T09:52:12;69.32;;;57.88;;
53879;SDS011;39791;53.184;5.486;2024-01-30T09:54:38;70.75;;;55.17;;
53879;SDS011;39791;53.184;5.486;2024-01-30T09:57:05;61.63;;;51.38;;
53879;SDS011;39791;53.184;5.486;2024-01-30T09:59:31;71.68;;;50.58;;
53879;SDS011;39791;53.184;5.486;2024-01-30T10:01:57;70.88;;;51.72;;
53879;SDS011;39791;53.184;5.486;2024-01-30T10:04:23;70.75;;;51.38;;
53879;SDS011;39791;53.184;5.486;2024-01-30T10:06:48;75.85;;;56.17;;
53879;SDS011;39791;53.184;5.486;2024-01-30T10:09:15;78.45;;;52.85;;
53879;SDS011;39791;53.184;5.486;2024-01-30T10:11:41;71.93;;;50.38;;
53879;SDS011;39791;53.184;5.486;2024-01-30T10:14:07;77.72;;;50.95;;
53879;SDS011;39791;53.184;5.486;2024-01-30T10:16:34;67.10;;;51.63;;
53879;SDS011;39791;53.184;5.486;2024-01-30T10:18:59;76.40;;;53.20;;
53879;SDS011;39791;53.184;5.486;2024-01-30T10:21:25;61.50;;;50.47;;
53879;SDS011;39791;53.184;5.486;2024-01-30T10:23:51;74.63;;;49.95;;
53879;SDS011;39791;53.184;5.486;2024-01-30T10:26:16;77.53;;;50.10;;
53879;SDS011;39791;53.184;5.486;2024-01-30T10:28:45;63.85;;;46.35;;
53879;SDS011;39791;53.184;5.486;2024-01-30T10:31:10;66.13;;;46.78;;
53879;SDS011;39791;53.184;5.486;2024-01-30T10:33:36;64.10;;;50.33;;
53879;SDS011;39791;53.184;5.486;2024-01-30T10:36:03;67.75;;;47.85;;
53879;SDS011;39791;53.184;5.486;2024-01-30T10:38:29;73.47;;;47.97;;
53879;SDS011;39791;53.184;5.486;2024-01-30T10:40:56;72.80;;;48.78;;
53879;SDS011;39791;53.184;5.486;2024-01-30T10:43:24;61.00;;;50.95;;
53879;SDS011;39791;53.184;5.486;2024-01-30T10:45:57;59.13;;;47.03;;
53879;SDS011;39791;53.184;5.486;2024-01-30T10:48:29;59.55;;;46.92;;
53879;SDS011;39791;53.184;5.486;2024-01-30T10:50:57;62.30;;;46.38;;
53879;SDS011;39791;53.184;5.486;2024-01-30T10:53:25;58.35;;;49.08;;
53879;SDS011;39791;53.184;5.486;2024-01-30T10:55:52;58.15;;;44.47;;
53879;SDS011;39791;53.184;5.486;2024-01-30T10:58:20;73.63;;;48.85;;
53879;SDS011;39791;53.184;5.486;2024-01-30T11:00:46;62.47;;;49.88;;
53879;SDS011;39791;53.184;5.486;2024-01-30T11:03:13;57.17;;;48.30;;
53879;SDS011;39791;53.184;5.486;2024-01-30T11:05:40;64.90;;;49.30;;
53879;SDS011;39791;53.184;5.486;2024-01-30T11:08:15;61.22;;;48.25;;
53879;SDS011;39791;53.184;5.486;2024-01-30T11:10:48;59.08;;;47.05;;
53879;SDS011;39791;53.184;5.486;2024-01-30T11:13:14;55.85;;;49.78;;
53879;SDS011;39791;53.184;5.486;2024-01-30T11:15:40;60.63;;;45.42;;
53879;SDS011;39791;53.184;5.486;2024-01-30T11:18:06;57.03;;;44.42;;
53879;SDS011;39791;53.184;5.486;2024-01-30T11:20:31;57.38;;;45.92;;
53879;SDS011;39791;53.184;5.486;2024-01-30T11:22:57;59.45;;;44.63;;
53879;SDS011;39791;53.184;5.486;2024-01-30T11:25:24;57.45;;;37.08;;
53879;SDS011;39791;53.184;5.486;2024-01-30T11:27:51;60.20;;;45.92;;
53879;SDS011;39791;53.184;5.486;2024-01-30T11:38:06;50.95;;;44.90;;
53879;SDS011;39791;53.184;5.486;2024-01-30T11:40:39;61.72;;;43.67;;
53879;SDS011;39791;53.184;5.486;2024-01-30T11:43:06;54.58;;;44.90;;
53879;SDS011;39791;53.184;5.486;2024-01-30T11:45:33;56.50;;;45.30;;
53879;SDS011;39791;53.184;5.486;2024-01-30T11:47:59;57.60;;;46.28;;
53879;SDS011;39791;53.184;5.486;2024-01-30T11:50:28;46.90;;;41.38;;
53879;SDS011;39791;53.184;5.486;2024-01-30T11:52:58;52.88;;;45.05;;
53879;SDS011;39791;53.184;5.486;2024-01-30T11:55:26;54.60;;;47.47;;
53879;SDS011;39791;53.184;5.486;2024-01-30T11:57:55;54.03;;;45.13;;
53879;SDS011;39791;53.184;5.486;2024-01-30T12:00:24;58.13;;;45.08;;
53879;SDS011;39791;53.184;5.486;2024-01-30T12:02:51;50.72;;;44.63;;
53879;SDS011;39791;53.184;5.486;2024-01-30T12:05:20;46.25;;;41.20;;
53879;SDS011;39791;53.184;5.486;2024-01-30T12:07:47;50.40;;;43.33;;
53879;SDS011;39791;53.184;5.486;2024-01-30T12:10:13;48.15;;;43.13;;
53879;SDS011;39791;53.184;5.486;2024-01-30T12:12:39;51.22;;;45.53;;
53879;SDS011;39791;53.184;5.486;2024-01-30T12:15:06;50.03;;;44.75;;
53879;SDS011;39791;53.184;5.486;2024-01-30T12:17:33;51.45;;;45.95;;
53879;SDS011;39791;53.184;5.486;2024-01-30T12:20:05;55.42;;;49.50;;
53879;SDS011;39791;53.184;5.486;2024-01-30T12:22:38;53.20;;;48.25;;
53879;SDS011;39791;53.184;5.486;2024-01-30T12:27:35;51.75;;;46.88;;
53879;SDS011;39791;53.184;5.486;2024-01-30T12:30:01;51.80;;;46.83;;
53879;SDS011;39791;53.184;5.486;2024-01-30T12:32:29;51.05;;;46.08;;
53879;SDS011;39791;53.184;5.486;2024-01-30T12:34:55;51.88;;;46.63;;
53879;SDS011;39791;53.184;5.486;2024-01-30T12:37:22;50.58;;;45.55;;
53879;SDS011;39791;53.184;5.486;2024-01-30T12:39:49;56.17;;;50.50;;
53879;SDS011;39791;53.184;5.486;2024-01-30T12:42:16;53.67;;;48.45;;
53879;SDS011;39791;53.184;5.486;2024-01-30T12:44:42;52.45;;;47.42;;
53879;SDS011;39791;53.184;5.486;2024-01-30T12:47:08;46.88;;;42.28;;
53879;SDS011;39791;53.184;5.486;2024-01-30T12:49:35;48.00;;;43.55;;
53879;SDS011;39791;53.184;5.486;2024-01-30T12:52:01;48.38;;;43.28;;
53879;SDS011;39791;53.184;5.486;2024-01-30T12:54:26;46.47;;;41.40;;
53879;SDS011;39791;53.184;5.486;2024-01-30T12:56:52;48.80;;;43.63;;
53879;SDS011;39791;53.184;5.486;2024-01-30T12:59:18;47.63;;;42.88;;
53879;SDS011;39791;53.184;5.486;2024-01-30T13:01:43;47.80;;;43.15;;
53879;SDS011;39791;53.184;5.486;2024-01-30T13:04:09;47.65;;;42.22;;
53879;SDS011;39791;53.184;5.486;2024-01-30T13:06:35;48.33;;;41.38;;
53879;SDS011;39791;53.184;5.486;2024-01-30T13:09:00;47.70;;;43.17;;
53879;SDS011;39791;53.184;5.486;2024-01-30T13:11:26;43.60;;;38.95;;
53879;SDS011;39791;53.184;5.486;2024-01-30T13:13:51;39.30;;;35.42;;
53879;SDS011;39791;53.184;5.486;2024-01-30T13:16:17;44.20;;;39.78;;
53879;SDS011;39791;53.184;5.486;2024-01-30T13:18:43;46.17;;;41.13;;
53879;SDS011;39791;53.184;5.486;2024-01-30T13:21:09;37.33;;;33.78;;
53879;SDS011;39791;53.184;5.486;2024-01-30T13:23:35;43.33;;;38.90;;
53879;SDS011;39791;53.184;5.486;2024-01-30T13:26:00;41.00;;;36.83;;
53879;SDS011;39791;53.184;5.486;2024-01-30T13:28:26;46.78;;;41.22;;
53879;SDS011;39791;53.184;5.486;2024-01-30T13:30:52;41.20;;;37.05;;
53879;SDS011;39791;53.184;5.486;2024-01-30T13:33:17;44.20;;;39.53;;
53879;SDS011;39791;53.184;5.486;2024-01-30T13:35:43;46.60;;;41.95;;
53879;SDS011;39791;53.184;5.486;2024-01-30T13:38:08;35.35;;;31.70;;
53879;SDS011;39791;53.184;5.486;2024-01-30T13:40:34;43.75;;;39.17;;
53879;SDS011;39791;53.184;5.486;2024-01-30T13:43:00;46.20;;;41.47;;
53879;SDS011;39791;53.184;5.486;2024-01-30T13:45:25;42.20;;;38.08;;
53879;SDS011;39791;53.184;5.486;2024-01-30T13:47:51;47.05;;;42.20;;
53879;SDS011;39791;53.184;5.486;2024-01-30T13:50:16;43.08;;;35.90;;
53879;SDS011;39791;53.184;5.486;2024-01-30T13:52:42;44.72;;;34.90;;
53879;SDS011;39791;53.184;5.486;2024-01-30T13:55:08;48.30;;;43.00;;
53879;SDS011;39791;53.184;5.486;2024-01-30T13:57:35;43.85;;;39.30;;
53879;SDS011;39791;53.184;5.486;2024-01-30T14:00:02;49.10;;;42.80;;
53879;SDS011;39791;53.184;5.486;2024-01-30T14:02:31;46.08;;;41.15;;
53879;SDS011;39791;53.184;5.486;2024-01-30T14:04:57;45.30;;;40.70;;
53879;SDS011;39791;53.184;5.486;2024-01-30T14:07:23;48.33;;;43.13;;
53879;SDS011;39791;53.184;5.486;2024-01-30T14:09:48;47.30;;;42.30;;
53879;SDS011;39791;53.184;5.486;2024-01-30T14:12:14;49.80;;;44.38;;
53879;SDS011;39791;53.184;5.486;2024-01-30T14:14:40;46.60;;;41.53;;
53879;SDS011;39791;53.184;5.486;2024-01-30T14:17:06;45.67;;;41.08;;
53879;SDS011;39791;53.184;5.486;2024-01-30T14:19:32;46.95;;;41.28;;
53879;SDS011;39791;53.184;5.486;2024-01-30T14:21:59;46.17;;;41.15;;
53879;SDS011;39791;53.184;5.486;2024-01-30T14:24:24;47.53;;;41.25;;